sensor_id;sensor_type;location;lat;lon;timestamp;temperature;humidity
6841;DHT22;3458;53.678;14.080;2023-09-19T00:01:46;21.10;99.90
6841;DHT22;3458;53.678;14.080;2023-09-19T00:04:12;21.20;99.90
6841;DHT22;3458;53.678;14.080;2023-09-19T00:06:40;21.10;99.90
6841;DHT22;3458;53.678;14.080;2023-09-19T00:09:06;21.20;99.90
6841;DHT22;3458;53.678;14.080;2023-09-19T00:11:36;21.10;99.90
6841;DHT22;3458;53.678;14.080;2023-09-19T00:14:01;21.10;99.90
6841;DHT22;3458;53.678;14.080;2023-09-19T00:16:27;21.10;99.90
6841;DHT22;3458;53.678;14.080;2023-09-19T00:18:53;21.10;99.90
6841;DHT22;3458;53.678;14.080;2023-09-19T00:21:18;21.00;99.90
6841;DHT22;3458;53.678;14.080;2023-09-19T00:23:44;21.00;99.90
6841;DHT22;3458;53.678;14.080;2023-09-19T00:26:10;21.00;99.90
6841;DHT22;3458;53.678;14.080;2023-09-19T00:28:36;21.00;99.90
6841;DHT22;3458;53.678;14.080;2023-09-19T00:31:01;21.00;99.90
6841;DHT22;3458;53.678;14.080;2023-09-19T00:33:28;21.10;99.90
6841;DHT22;3458;53.678;14.080;2023-09-19T00:35:56;21.10;99.90
6841;DHT22;3458;53.678;14.080;2023-09-19T00:38:22;21.10;99.90
6841;DHT22;3458;53.678;14.080;2023-09-19T00:40:50;21.10;99.90
6841;DHT22;3458;53.678;14.080;2023-09-19T00:43:19;21.00;99.90
6841;DHT22;3458;53.678;14.080;2023-09-19T00:45:47;21.00;99.90
6841;DHT22;3458;53.678;14.080;2023-09-19T00:48:14;21.10;99.90
6841;DHT22;3458;53.678;14.080;2023-09-19T00:50:42;21.10;99.90
6841;DHT22;3458;53.678;14.080;2023-09-19T00:53:09;21.10;99.90
6841;DHT22;3458;53.678;14.080;2023-09-19T00:55:36;21.10;99.90
6841;DHT22;3458;53.678;14.080;2023-09-19T00:58:03;21.10;99.90
6841;DHT22;3458;53.678;14.080;2023-09-19T01:00:31;21.10;99.90
6841;DHT22;3458;53.678;14.080;2023-09-19T01:02:59;21.10;99.90
6841;DHT22;3458;53.678;14.080;2023-09-19T01:05:26;21.10;99.90
6841;DHT22;3458;53.678;14.080;2023-09-19T01:07:52;21.00;99.90
6841;DHT22;3458;53.678;14.080;2023-09-19T01:10:20;21.00;99.90
6841;DHT22;3458;53.678;14.080;2023-09-19T01:12:59;21.00;99.90
6841;DHT22;3458;53.678;14.080;2023-09-19T01:18:21;21.10;99.90
6841;DHT22;3458;53.678;14.080;2023-09-19T01:21:05;21.00;99.90
6841;DHT22;3458;53.678;14.080;2023-09-19T01:29:42;21.00;99.90
6841;DHT22;3458;53.678;14.080;2023-09-19T01:32:10;20.90;99.90
6841;DHT22;3458;53.678;14.080;2023-09-19T01:34:46;20.90;99.90
6841;DHT22;3458;53.678;14.080;2023-09-19T01:37:18;20.90;99.90
6841;DHT22;3458;53.678;14.080;2023-09-19T01:39:51;20.90;99.90
6841;DHT22;3458;53.678;14.080;2023-09-19T01:42:37;20.80;99.90
6841;DHT22;3458;53.678;14.080;2023-09-19T01:47:52;20.90;99.90
6841;DHT22;3458;53.678;14.080;2023-09-19T01:50:47;20.90;99.90
6841;DHT22;3458;53.678;14.080;2023-09-19T01:53:27;20.90;99.90
6841;DHT22;3458;53.678;14.080;2023-09-19T01:55:56;20.90;99.90
6841;DHT22;3458;53.678;14.080;2023-09-19T01:58:48;20.80;99.90
6841;DHT22;3458;53.678;14.080;2023-09-19T02:01:20;20.80;99.90
6841;DHT22;3458;53.678;14.080;2023-09-19T02:03:47;20.70;99.90
6841;DHT22;3458;53.678;14.080;2023-09-19T02:06:14;20.80;99.90
6841;DHT22;3458;53.678;14.080;2023-09-19T02:08:41;20.70;99.90
6841;DHT22;3458;53.678;14.080;2023-09-19T02:11:06;20.70;99.90
6841;DHT22;3458;53.678;14.080;2023-09-19T02:13:31;20.70;99.90
6841;DHT22;3458;53.678;14.080;2023-09-19T02:15:57;20.70;99.90
6841;DHT22;3458;53.678;14.080;2023-09-19T02:18:23;20.70;99.90
6841;DHT22;3458;53.678;14.080;2023-09-19T02:20:48;20.60;99.90
6841;DHT22;3458;53.678;14.080;2023-09-19T02:23:14;20.60;99.90
6841;DHT22;3458;53.678;14.080;2023-09-19T02:25:41;20.50;99.90
6841;DHT22;3458;53.678;14.080;2023-09-19T02:28:08;20.50;99.90
6841;DHT22;3458;53.678;14.080;2023-09-19T02:30:34;20.50;99.90
6841;DHT22;3458;53.678;14.080;2023-09-19T02:33:01;20.50;99.90
6841;DHT22;3458;53.678;14.080;2023-09-19T02:35:27;20.50;99.90
6841;DHT22;3458;53.678;14.080;2023-09-19T02:37:53;20.50;99.90
6841;DHT22;3458;53.678;14.080;2023-09-19T02:40:19;20.40;99.90
6841;DHT22;3458;53.678;14.080;2023-09-19T02:42:48;20.40;99.90
6841;DHT22;3458;53.678;14.080;2023-09-19T02:45:18;20.40;99.90
6841;DHT22;3458;53.678;14.080;2023-09-19T02:47:47;20.40;99.90
6841;DHT22;3458;53.678;14.080;2023-09-19T02:50:13;20.30;99.90
6841;DHT22;3458;53.678;14.080;2023-09-19T02:52:42;20.30;99.90
6841;DHT22;3458;53.678;14.080;2023-09-19T02:55:12;20.30;99.90
6841;DHT22;3458;53.678;14.080;2023-09-19T02:57:45;20.20;99.90
6841;DHT22;3458;53.678;14.080;2023-09-19T03:00:12;20.20;99.90
6841;DHT22;3458;53.678;14.080;2023-09-19T03:02:37;20.10;99.90
6841;DHT22;3458;53.678;14.080;2023-09-19T03:05:05;20.10;99.90
6841;DHT22;3458;53.678;14.080;2023-09-19T03:07:31;20.10;99.90
6841;DHT22;3458;53.678;14.080;2023-09-19T03:09:57;20.10;99.90
6841;DHT22;3458;53.678;14.080;2023-09-19T03:12:22;20.10;99.90
6841;DHT22;3458;53.678;14.080;2023-09-19T03:14:48;20.00;99.90
6841;DHT22;3458;53.678;14.080;2023-09-19T03:17:13;20.10;99.90
6841;DHT22;3458;53.678;14.080;2023-09-19T03:19:40;20.10;99.90
6841;DHT22;3458;53.678;14.080;2023-09-19T03:22:05;20.10;99.90
6841;DHT22;3458;53.678;14.080;2023-09-19T03:24:31;20.10;99.90
6841;DHT22;3458;53.678;14.080;2023-09-19T03:26:59;20.10;99.90
6841;DHT22;3458;53.678;14.080;2023-09-19T03:29:25;20.10;99.90
6841;DHT22;3458;53.678;14.080;2023-09-19T03:31:50;20.10;99.90
6841;DHT22;3458;53.678;14.080;2023-09-19T03:34:16;20.00;99.90
6841;DHT22;3458;53.678;14.080;2023-09-19T03:36:42;20.10;99.90
6841;DHT22;3458;53.678;14.080;2023-09-19T03:39:07;20.10;99.90
6841;DHT22;3458;53.678;14.080;2023-09-19T03:41:33;19.90;99.90
6841;DHT22;3458;53.678;14.080;2023-09-19T03:44:01;19.90;99.90
6841;DHT22;3458;53.678;14.080;2023-09-19T03:46:28;19.90;99.90
6841;DHT22;3458;53.678;14.080;2023-09-19T03:48:53;19.90;99.90
6841;DHT22;3458;53.678;14.080;2023-09-19T03:51:20;19.90;99.90
6841;DHT22;3458;53.678;14.080;2023-09-19T03:53:45;19.90;99.90
6841;DHT22;3458;53.678;14.080;2023-09-19T03:56:11;19.80;99.90
6841;DHT22;3458;53.678;14.080;2023-09-19T03:58:37;19.90;99.90
6841;DHT22;3458;53.678;14.080;2023-09-19T04:01:05;19.90;99.90
6841;DHT22;3458;53.678;14.080;2023-09-19T04:03:34;19.80;99.90
6841;DHT22;3458;53.678;14.080;2023-09-19T04:06:11;19.80;99.90
6841;DHT22;3458;53.678;14.080;2023-09-19T04:08:37;19.90;99.90
6841;DHT22;3458;53.678;14.080;2023-09-19T04:11:02;19.80;99.90
6841;DHT22;3458;53.678;14.080;2023-09-19T04:13:28;19.60;99.90
6841;DHT22;3458;53.678;14.080;2023-09-19T04:15:53;19.50;99.90
6841;DHT22;3458;53.678;14.080;2023-09-19T04:18:19;19.50;99.90
6841;DHT22;3458;53.678;14.080;2023-09-19T04:20:49;19.50;99.90
6841;DHT22;3458;53.678;14.080;2023-09-19T04:23:15;19.50;99.90
6841;DHT22;3458;53.678;14.080;2023-09-19T04:25:41;19.50;99.90
6841;DHT22;3458;53.678;14.080;2023-09-19T04:28:06;19.50;99.90
6841;DHT22;3458;53.678;14.080;2023-09-19T04:30:32;19.50;99.90
6841;DHT22;3458;53.678;14.080;2023-09-19T04:32:57;19.50;99.90
6841;DHT22;3458;53.678;14.080;2023-09-19T04:35:23;19.40;99.90
6841;DHT22;3458;53.678;14.080;2023-09-19T04:37:48;19.30;99.90
6841;DHT22;3458;53.678;14.080;2023-09-19T04:40:15;19.20;99.90
6841;DHT22;3458;53.678;14.080;2023-09-19T04:42:43;19.20;99.90
6841;DHT22;3458;53.678;14.080;2023-09-19T04:45:09;19.30;99.90
6841;DHT22;3458;53.678;14.080;2023-09-19T04:47:36;19.20;99.90
6841;DHT22;3458;53.678;14.080;2023-09-19T04:50:04;19.30;99.90
6841;DHT22;3458;53.678;14.080;2023-09-19T04:52:30;19.30;99.90
6841;DHT22;3458;53.678;14.080;2023-09-19T04:54:56;19.20;99.90
6841;DHT22;3458;53.678;14.080;2023-09-19T04:57:22;19.10;99.90
6841;DHT22;3458;53.678;14.080;2023-09-19T04:59:48;19.10;99.90
6841;DHT22;3458;53.678;14.080;2023-09-19T05:02:14;19.00;99.90
6841;DHT22;3458;53.678;14.080;2023-09-19T05:04:40;19.00;99.90
6841;DHT22;3458;53.678;14.080;2023-09-19T05:07:05;19.00;99.90
6841;DHT22;3458;53.678;14.080;2023-09-19T05:09:31;19.00;99.90
6841;DHT22;3458;53.678;14.080;2023-09-19T05:11:59;18.90;99.90
6841;DHT22;3458;53.678;14.080;2023-09-19T05:14:24;18.90;99.90
6841;DHT22;3458;53.678;14.080;2023-09-19T05:16:50;18.90;99.90
6841;DHT22;3458;53.678;14.080;2023-09-19T05:19:15;18.90;99.90
6841;DHT22;3458;53.678;14.080;2023-09-19T05:21:41;18.90;99.90
6841;DHT22;3458;53.678;14.080;2023-09-19T05:24:06;18.80;99.90
6841;DHT22;3458;53.678;14.080;2023-09-19T05:26:33;18.80;99.90
6841;DHT22;3458;53.678;14.080;2023-09-19T05:28:58;18.80;99.90
6841;DHT22;3458;53.678;14.080;2023-09-19T05:31:24;18.80;99.90
6841;DHT22;3458;53.678;14.080;2023-09-19T05:33:51;18.80;99.90
6841;DHT22;3458;53.678;14.080;2023-09-19T05:36:16;18.80;99.90
6841;DHT22;3458;53.678;14.080;2023-09-19T05:38:42;18.90;99.90
6841;DHT22;3458;53.678;14.080;2023-09-19T05:41:09;18.80;99.90
6841;DHT22;3458;53.678;14.080;2023-09-19T05:43:39;18.80;99.90
6841;DHT22;3458;53.678;14.080;2023-09-19T05:46:06;18.90;99.90
6841;DHT22;3458;53.678;14.080;2023-09-19T05:48:33;18.80;99.90
6841;DHT22;3458;53.678;14.080;2023-09-19T05:50:59;18.80;99.90
6841;DHT22;3458;53.678;14.080;2023-09-19T05:53:25;18.70;99.90
6841;DHT22;3458;53.678;14.080;2023-09-19T05:55:50;18.70;99.90
6841;DHT22;3458;53.678;14.080;2023-09-19T05:58:18;18.70;99.90
6841;DHT22;3458;53.678;14.080;2023-09-19T06:00:45;18.70;99.90
6841;DHT22;3458;53.678;14.080;2023-09-19T06:03:12;18.60;99.90
6841;DHT22;3458;53.678;14.080;2023-09-19T06:05:40;18.60;99.90
6841;DHT22;3458;53.678;14.080;2023-09-19T06:08:06;18.50;99.90
6841;DHT22;3458;53.678;14.080;2023-09-19T06:10:33;18.60;99.90
6841;DHT22;3458;53.678;14.080;2023-09-19T06:13:01;18.60;99.90
6841;DHT22;3458;53.678;14.080;2023-09-19T06:15:29;18.50;99.90
6841;DHT22;3458;53.678;14.080;2023-09-19T06:17:57;18.60;99.90
6841;DHT22;3458;53.678;14.080;2023-09-19T06:20:25;18.60;99.90
6841;DHT22;3458;53.678;14.080;2023-09-19T06:22:51;18.60;99.90
6841;DHT22;3458;53.678;14.080;2023-09-19T06:25:17;18.60;99.90
6841;DHT22;3458;53.678;14.080;2023-09-19T06:27:46;18.60;99.90
6841;DHT22;3458;53.678;14.080;2023-09-19T06:30:12;18.70;99.90
6841;DHT22;3458;53.678;14.080;2023-09-19T06:32:39;18.70;99.90
6841;DHT22;3458;53.678;14.080;2023-09-19T06:35:06;18.80;99.90
6841;DHT22;3458;53.678;14.080;2023-09-19T06:37:36;18.80;99.90
6841;DHT22;3458;53.678;14.080;2023-09-19T06:40:14;18.90;99.90
6841;DHT22;3458;53.678;14.080;2023-09-19T06:42:44;18.90;99.90
6841;DHT22;3458;53.678;14.080;2023-09-19T06:45:14;19.00;99.90
6841;DHT22;3458;53.678;14.080;2023-09-19T06:47:44;19.10;99.90
6841;DHT22;3458;53.678;14.080;2023-09-19T06:50:10;19.10;99.90
6841;DHT22;3458;53.678;14.080;2023-09-19T06:52:40;19.20;99.90
6841;DHT22;3458;53.678;14.080;2023-09-19T06:55:06;19.20;99.90
6841;DHT22;3458;53.678;14.080;2023-09-19T06:57:32;19.10;99.90
6841;DHT22;3458;53.678;14.080;2023-09-19T06:59:57;19.10;99.90
6841;DHT22;3458;53.678;14.080;2023-09-19T07:02:23;19.20;99.90
6841;DHT22;3458;53.678;14.080;2023-09-19T07:04:48;19.30;99.90
6841;DHT22;3458;53.678;14.080;2023-09-19T07:07:15;19.40;99.90
6841;DHT22;3458;53.678;14.080;2023-09-19T07:09:41;19.30;99.90
6841;DHT22;3458;53.678;14.080;2023-09-19T07:12:07;19.40;99.90
6841;DHT22;3458;53.678;14.080;2023-09-19T07:14:33;19.40;99.90
6841;DHT22;3458;53.678;14.080;2023-09-19T07:16:58;19.40;99.90
6841;DHT22;3458;53.678;14.080;2023-09-19T07:19:29;19.30;99.90
6841;DHT22;3458;53.678;14.080;2023-09-19T07:21:55;19.30;99.90
6841;DHT22;3458;53.678;14.080;2023-09-19T07:24:20;19.30;99.90
6841;DHT22;3458;53.678;14.080;2023-09-19T07:26:49;19.30;99.90
6841;DHT22;3458;53.678;14.080;2023-09-19T07:29:15;19.20;99.90
6841;DHT22;3458;53.678;14.080;2023-09-19T07:31:41;19.20;99.90
6841;DHT22;3458;53.678;14.080;2023-09-19T07:34:07;19.20;99.90
6841;DHT22;3458;53.678;14.080;2023-09-19T07:36:34;19.20;99.90
6841;DHT22;3458;53.678;14.080;2023-09-19T07:38:59;19.20;99.90
6841;DHT22;3458;53.678;14.080;2023-09-19T07:41:25;19.10;99.90
6841;DHT22;3458;53.678;14.080;2023-09-19T07:43:51;19.10;99.90
6841;DHT22;3458;53.678;14.080;2023-09-19T07:46:16;19.10;99.90
6841;DHT22;3458;53.678;14.080;2023-09-19T07:48:42;19.10;99.90
6841;DHT22;3458;53.678;14.080;2023-09-19T07:51:13;19.10;99.90
6841;DHT22;3458;53.678;14.080;2023-09-19T07:53:39;19.10;99.90
6841;DHT22;3458;53.678;14.080;2023-09-19T07:56:06;19.10;99.90
6841;DHT22;3458;53.678;14.080;2023-09-19T07:58:32;19.20;99.90
6841;DHT22;3458;53.678;14.080;2023-09-19T08:01:09;19.20;99.90
6841;DHT22;3458;53.678;14.080;2023-09-19T08:03:38;19.20;99.90
6841;DHT22;3458;53.678;14.080;2023-09-19T08:06:06;19.20;99.90
6841;DHT22;3458;53.678;14.080;2023-09-19T08:08:35;19.20;99.90
6841;DHT22;3458;53.678;14.080;2023-09-19T08:11:05;19.20;99.90
6841;DHT22;3458;53.678;14.080;2023-09-19T08:13:38;19.20;99.90
6841;DHT22;3458;53.678;14.080;2023-09-19T08:16:12;19.20;99.90
6841;DHT22;3458;53.678;14.080;2023-09-19T08:18:38;19.20;99.90
6841;DHT22;3458;53.678;14.080;2023-09-19T08:21:07;19.20;99.90
6841;DHT22;3458;53.678;14.080;2023-09-19T08:23:37;19.20;99.90
6841;DHT22;3458;53.678;14.080;2023-09-19T08:26:03;19.20;99.90
6841;DHT22;3458;53.678;14.080;2023-09-19T08:28:36;19.10;99.90
6841;DHT22;3458;53.678;14.080;2023-09-19T08:31:06;19.10;99.90
6841;DHT22;3458;53.678;14.080;2023-09-19T08:33:33;19.00;99.90
6841;DHT22;3458;53.678;14.080;2023-09-19T08:35:59;19.10;99.90
6841;DHT22;3458;53.678;14.080;2023-09-19T08:38:25;19.10;99.90
6841;DHT22;3458;53.678;14.080;2023-09-19T08:40:58;19.10;99.90
6841;DHT22;3458;53.678;14.080;2023-09-19T08:43:25;19.10;99.90
6841;DHT22;3458;53.678;14.080;2023-09-19T08:46:25;19.10;99.90
6841;DHT22;3458;53.678;14.080;2023-09-19T08:48:57;19.20;99.90
6841;DHT22;3458;53.678;14.080;2023-09-19T08:51:43;19.20;99.90
6841;DHT22;3458;53.678;14.080;2023-09-19T08:54:21;19.30;99.90
6841;DHT22;3458;53.678;14.080;2023-09-19T08:56:47;19.30;99.90
6841;DHT22;3458;53.678;14.080;2023-09-19T08:59:13;19.30;99.90
6841;DHT22;3458;53.678;14.080;2023-09-19T09:01:40;19.30;99.90
6841;DHT22;3458;53.678;14.080;2023-09-19T09:04:08;19.40;99.90
6841;DHT22;3458;53.678;14.080;2023-09-19T09:06:34;19.40;99.90
6841;DHT22;3458;53.678;14.080;2023-09-19T09:09:02;19.50;99.90
6841;DHT22;3458;53.678;14.080;2023-09-19T09:11:28;19.60;99.90
6841;DHT22;3458;53.678;14.080;2023-09-19T09:13:54;19.60;99.90
6841;DHT22;3458;53.678;14.080;2023-09-19T09:16:19;19.60;99.90
6841;DHT22;3458;53.678;14.080;2023-09-19T09:18:45;19.70;99.90
6841;DHT22;3458;53.678;14.080;2023-09-19T09:21:12;19.70;99.90
6841;DHT22;3458;53.678;14.080;2023-09-19T09:23:39;19.70;99.90
6841;DHT22;3458;53.678;14.080;2023-09-19T09:26:05;19.80;99.90
6841;DHT22;3458;53.678;14.080;2023-09-19T09:28:34;20.00;99.90
6841;DHT22;3458;53.678;14.080;2023-09-19T09:31:01;20.10;99.30
6841;DHT22;3458;53.678;14.080;2023-09-19T09:33:34;20.20;98.10
6841;DHT22;3458;53.678;14.080;2023-09-19T09:36:00;20.20;97.40
6841;DHT22;3458;53.678;14.080;2023-09-19T09:38:50;20.20;96.30
6841;DHT22;3458;53.678;14.080;2023-09-19T09:41:17;20.30;97.30
6841;DHT22;3458;53.678;14.080;2023-09-19T09:43:53;20.30;96.80
6841;DHT22;3458;53.678;14.080;2023-09-19T09:46:20;20.30;96.10
6841;DHT22;3458;53.678;14.080;2023-09-19T09:48:59;20.40;95.90
6841;DHT22;3458;53.678;14.080;2023-09-19T09:51:47;20.50;95.60
6841;DHT22;3458;53.678;14.080;2023-09-19T09:54:23;20.60;94.80
6841;DHT22;3458;53.678;14.080;2023-09-19T09:57:00;20.50;93.80
6841;DHT22;3458;53.678;14.080;2023-09-19T09:59:48;20.60;92.40
6841;DHT22;3458;53.678;14.080;2023-09-19T10:02:35;20.80;92.10
6841;DHT22;3458;53.678;14.080;2023-09-19T10:05:20;21.00;91.70
6841;DHT22;3458;53.678;14.080;2023-09-19T10:07:52;21.10;91.30
6841;DHT22;3458;53.678;14.080;2023-09-19T10:10:44;21.10;91.20
6841;DHT22;3458;53.678;14.080;2023-09-19T10:13:19;21.20;91.50
6841;DHT22;3458;53.678;14.080;2023-09-19T10:15:49;21.20;90.40
6841;DHT22;3458;53.678;14.080;2023-09-19T10:18:20;21.20;88.70
6841;DHT22;3458;53.678;14.080;2023-09-19T10:20:46;21.20;90.00
6841;DHT22;3458;53.678;14.080;2023-09-19T10:23:14;21.40;88.50
6841;DHT22;3458;53.678;14.080;2023-09-19T10:25:47;21.50;86.90
6841;DHT22;3458;53.678;14.080;2023-09-19T10:28:15;21.60;81.80
6841;DHT22;3458;53.678;14.080;2023-09-19T10:33:13;21.50;82.60
6841;DHT22;3458;53.678;14.080;2023-09-19T10:35:42;21.40;78.40
6841;DHT22;3458;53.678;14.080;2023-09-19T10:38:10;21.30;79.40
6841;DHT22;3458;53.678;14.080;2023-09-19T10:40:37;21.20;78.70
6841;DHT22;3458;53.678;14.080;2023-09-19T10:43:06;21.30;79.50
6841;DHT22;3458;53.678;14.080;2023-09-19T10:45:34;21.40;80.10
6841;DHT22;3458;53.678;14.080;2023-09-19T10:48:01;21.50;79.90
6841;DHT22;3458;53.678;14.080;2023-09-19T10:50:43;21.40;80.90
6841;DHT22;3458;53.678;14.080;2023-09-19T10:53:11;21.40;82.00
6841;DHT22;3458;53.678;14.080;2023-09-19T10:55:38;21.40;78.50
6841;DHT22;3458;53.678;14.080;2023-09-19T10:58:07;21.50;79.00
6841;DHT22;3458;53.678;14.080;2023-09-19T11:00:54;21.70;76.50
6841;DHT22;3458;53.678;14.080;2023-09-19T11:03:21;21.70;77.10
6841;DHT22;3458;53.678;14.080;2023-09-19T11:06:08;21.60;76.40
6841;DHT22;3458;53.678;14.080;2023-09-19T11:09:01;21.50;76.60
6841;DHT22;3458;53.678;14.080;2023-09-19T11:11:48;21.50;75.70
6841;DHT22;3458;53.678;14.080;2023-09-19T11:30:35;22.30;70.80
6841;DHT22;3458;53.678;14.080;2023-09-19T11:36:12;22.60;69.00
6841;DHT22;3458;53.678;14.080;2023-09-19T11:46:30;22.80;69.80
6841;DHT22;3458;53.678;14.080;2023-09-19T11:49:08;22.50;66.20
6841;DHT22;3458;53.678;14.080;2023-09-19T11:51:41;22.40;66.20
6841;DHT22;3458;53.678;14.080;2023-09-19T11:54:14;22.20;67.00
6841;DHT22;3458;53.678;14.080;2023-09-19T11:56:43;22.20;65.90
6841;DHT22;3458;53.678;14.080;2023-09-19T11:59:10;22.10;66.20
6841;DHT22;3458;53.678;14.080;2023-09-19T12:01:38;22.10;66.80
6841;DHT22;3458;53.678;14.080;2023-09-19T12:04:11;22.20;66.40
6841;DHT22;3458;53.678;14.080;2023-09-19T12:06:37;22.20;65.30
6841;DHT22;3458;53.678;14.080;2023-09-19T12:09:12;22.10;65.60
6841;DHT22;3458;53.678;14.080;2023-09-19T12:11:42;22.00;66.10
6841;DHT22;3458;53.678;14.080;2023-09-19T12:14:09;22.20;68.10
6841;DHT22;3458;53.678;14.080;2023-09-19T12:16:35;22.40;68.50
6841;DHT22;3458;53.678;14.080;2023-09-19T12:19:21;22.40;67.00
6841;DHT22;3458;53.678;14.080;2023-09-19T12:22:01;22.30;68.10
6841;DHT22;3458;53.678;14.080;2023-09-19T12:24:30;22.40;68.30
6841;DHT22;3458;53.678;14.080;2023-09-19T12:27:03;22.40;67.30
6841;DHT22;3458;53.678;14.080;2023-09-19T12:32:07;22.40;66.70
6841;DHT22;3458;53.678;14.080;2023-09-19T12:34:33;22.10;67.50
6841;DHT22;3458;53.678;14.080;2023-09-19T12:37:14;22.00;68.20
6841;DHT22;3458;53.678;14.080;2023-09-19T12:39:48;21.90;69.00
6841;DHT22;3458;53.678;14.080;2023-09-19T12:42:26;22.00;69.40
6841;DHT22;3458;53.678;14.080;2023-09-19T12:44:58;22.10;68.90
6841;DHT22;3458;53.678;14.080;2023-09-19T12:47:26;22.10;68.30
6841;DHT22;3458;53.678;14.080;2023-09-19T12:50:14;22.30;69.00
6841;DHT22;3458;53.678;14.080;2023-09-19T12:52:48;22.40;66.90
6841;DHT22;3458;53.678;14.080;2023-09-19T12:55:27;22.50;66.70
6841;DHT22;3458;53.678;14.080;2023-09-19T13:03:15;22.50;64.20
6841;DHT22;3458;53.678;14.080;2023-09-19T13:05:52;22.50;65.40
6841;DHT22;3458;53.678;14.080;2023-09-19T13:08:24;22.50;64.90
6841;DHT22;3458;53.678;14.080;2023-09-19T13:11:13;22.50;64.00
6841;DHT22;3458;53.678;14.080;2023-09-19T13:16:19;22.40;63.00
6841;DHT22;3458;53.678;14.080;2023-09-19T13:18:48;22.30;62.80
6841;DHT22;3458;53.678;14.080;2023-09-19T13:21:17;22.40;62.60
6841;DHT22;3458;53.678;14.080;2023-09-19T13:23:54;22.50;62.50
6841;DHT22;3458;53.678;14.080;2023-09-19T13:26:25;22.40;61.80
6841;DHT22;3458;53.678;14.080;2023-09-19T13:28:50;22.40;62.30
6841;DHT22;3458;53.678;14.080;2023-09-19T13:31:16;22.50;63.20
6841;DHT22;3458;53.678;14.080;2023-09-19T13:33:45;22.50;62.40
6841;DHT22;3458;53.678;14.080;2023-09-19T13:36:11;22.60;62.30
6841;DHT22;3458;53.678;14.080;2023-09-19T13:38:41;22.50;62.10
6841;DHT22;3458;53.678;14.080;2023-09-19T13:41:10;22.60;62.40
6841;DHT22;3458;53.678;14.080;2023-09-19T13:43:37;22.60;62.70
6841;DHT22;3458;53.678;14.080;2023-09-19T13:46:03;22.60;62.50
6841;DHT22;3458;53.678;14.080;2023-09-19T13:48:29;22.50;61.10
6841;DHT22;3458;53.678;14.080;2023-09-19T13:50:55;22.40;60.50
6841;DHT22;3458;53.678;14.080;2023-09-19T13:53:21;22.40;59.30
6841;DHT22;3458;53.678;14.080;2023-09-19T13:55:46;22.30;59.90
6841;DHT22;3458;53.678;14.080;2023-09-19T13:58:14;22.20;59.40
6841;DHT22;3458;53.678;14.080;2023-09-19T14:00:39;22.20;60.00
6841;DHT22;3458;53.678;14.080;2023-09-19T14:03:05;22.20;60.60
6841;DHT22;3458;53.678;14.080;2023-09-19T14:05:31;22.20;58.30
6841;DHT22;3458;53.678;14.080;2023-09-19T14:07:56;22.20;58.30
6841;DHT22;3458;53.678;14.080;2023-09-19T14:10:24;22.20;58.40
6841;DHT22;3458;53.678;14.080;2023-09-19T14:12:51;22.20;58.40
6841;DHT22;3458;53.678;14.080;2023-09-19T14:15:17;22.20;58.40
6841;DHT22;3458;53.678;14.080;2023-09-19T14:17:42;22.20;59.60
6841;DHT22;3458;53.678;14.080;2023-09-19T14:20:10;22.20;58.60
6841;DHT22;3458;53.678;14.080;2023-09-19T14:22:36;22.20;58.30
6841;DHT22;3458;53.678;14.080;2023-09-19T14:25:05;22.20;58.70
6841;DHT22;3458;53.678;14.080;2023-09-19T14:27:31;22.20;59.40
6841;DHT22;3458;53.678;14.080;2023-09-19T14:29:56;22.20;59.50
6841;DHT22;3458;53.678;14.080;2023-09-19T14:32:23;22.30;59.00
6841;DHT22;3458;53.678;14.080;2023-09-19T14:34:48;22.30;59.10
6841;DHT22;3458;53.678;14.080;2023-09-19T14:37:14;22.40;59.70
6841;DHT22;3458;53.678;14.080;2023-09-19T14:39:42;22.50;58.70
6841;DHT22;3458;53.678;14.080;2023-09-19T14:42:11;22.40;58.50
6841;DHT22;3458;53.678;14.080;2023-09-19T14:44:36;22.40;58.20
6841;DHT22;3458;53.678;14.080;2023-09-19T14:47:03;22.30;57.50
6841;DHT22;3458;53.678;14.080;2023-09-19T14:49:33;22.30;57.90
6841;DHT22;3458;53.678;14.080;2023-09-19T14:51:59;22.30;57.70
6841;DHT22;3458;53.678;14.080;2023-09-19T14:54:24;22.40;58.30
6841;DHT22;3458;53.678;14.080;2023-09-19T14:56:50;22.60;58.10
6841;DHT22;3458;53.678;14.080;2023-09-19T14:59:19;22.80;57.60
6841;DHT22;3458;53.678;14.080;2023-09-19T15:01:45;22.90;58.20
6841;DHT22;3458;53.678;14.080;2023-09-19T15:04:11;22.80;57.40
6841;DHT22;3458;53.678;14.080;2023-09-19T15:06:36;22.60;57.30
6841;DHT22;3458;53.678;14.080;2023-09-19T15:09:02;22.40;57.90
6841;DHT22;3458;53.678;14.080;2023-09-19T15:11:30;22.30;58.10
6841;DHT22;3458;53.678;14.080;2023-09-19T15:13:55;22.20;58.70
6841;DHT22;3458;53.678;14.080;2023-09-19T15:16:21;22.20;59.30
6841;DHT22;3458;53.678;14.080;2023-09-19T15:18:47;22.10;59.80
6841;DHT22;3458;53.678;14.080;2023-09-19T15:21:13;22.10;58.80
6841;DHT22;3458;53.678;14.080;2023-09-19T15:23:40;22.00;58.80
6841;DHT22;3458;53.678;14.080;2023-09-19T15:26:14;21.80;58.30
6841;DHT22;3458;53.678;14.080;2023-09-19T15:28:42;21.70;58.30
6841;DHT22;3458;53.678;14.080;2023-09-19T15:31:10;21.50;57.90
6841;DHT22;3458;53.678;14.080;2023-09-19T15:33:37;21.40;58.60
6841;DHT22;3458;53.678;14.080;2023-09-19T15:38:54;22.30;58.80
6841;DHT22;3458;53.678;14.080;2023-09-19T15:41:19;22.80;57.30
6841;DHT22;3458;53.678;14.080;2023-09-19T15:43:45;23.10;56.30
6841;DHT22;3458;53.678;14.080;2023-09-19T15:46:10;23.60;55.00
6841;DHT22;3458;53.678;14.080;2023-09-19T15:48:36;24.40;53.90
6841;DHT22;3458;53.678;14.080;2023-09-19T15:51:04;24.10;52.40
6841;DHT22;3458;53.678;14.080;2023-09-19T15:53:44;23.30;53.90
6841;DHT22;3458;53.678;14.080;2023-09-19T15:56:10;22.70;55.50
6841;DHT22;3458;53.678;14.080;2023-09-19T15:58:37;22.30;56.50
6841;DHT22;3458;53.678;14.080;2023-09-19T16:01:05;22.00;57.00
6841;DHT22;3458;53.678;14.080;2023-09-19T16:03:34;21.70;57.60
6841;DHT22;3458;53.678;14.080;2023-09-19T16:06:00;21.40;58.10
6841;DHT22;3458;53.678;14.080;2023-09-19T16:08:26;21.20;59.20
6841;DHT22;3458;53.678;14.080;2023-09-19T16:10:52;21.20;59.70
6841;DHT22;3458;53.678;14.080;2023-09-19T16:13:18;21.10;60.10
6841;DHT22;3458;53.678;14.080;2023-09-19T16:15:43;21.00;59.60
6841;DHT22;3458;53.678;14.080;2023-09-19T16:18:09;20.80;59.80
6841;DHT22;3458;53.678;14.080;2023-09-19T16:20:35;20.80;60.10
6841;DHT22;3458;53.678;14.080;2023-09-19T16:23:04;20.70;60.70
6841;DHT22;3458;53.678;14.080;2023-09-19T16:25:29;20.60;60.60
6841;DHT22;3458;53.678;14.080;2023-09-19T16:27:55;20.60;60.50
6841;DHT22;3458;53.678;14.080;2023-09-19T16:30:20;20.50;60.90
6841;DHT22;3458;53.678;14.080;2023-09-19T16:32:46;20.50;61.10
6841;DHT22;3458;53.678;14.080;2023-09-19T16:35:11;20.40;61.30
6841;DHT22;3458;53.678;14.080;2023-09-19T16:37:38;20.30;61.40
6841;DHT22;3458;53.678;14.080;2023-09-19T16:40:04;20.30;61.60
6841;DHT22;3458;53.678;14.080;2023-09-19T16:42:30;20.20;61.50
6841;DHT22;3458;53.678;14.080;2023-09-19T16:44:56;20.20;61.10
6841;DHT22;3458;53.678;14.080;2023-09-19T16:47:23;20.10;61.50
6841;DHT22;3458;53.678;14.080;2023-09-19T16:49:49;20.00;61.80